18°C
Woerden, The Nederlands
Taal:  Nederlands
Updated15/08/2018 02:00 
 
Station Historical Data
 
Daily Summary for August 15, 2018 Units:  Metric    English   Both
Next Day »
Daily Weekly Monthly Yearly Custom
  Current: High: Low: Average:
Temperature: 17.6 °C 18.1 °C 16.9 °C 17.4 °C
Dew Point: 15.1 °C 15.1 °C 14.2 °C 14.6 °C
Humidity: 85% 85% 81% 83%
Wind Speed: 7.4km/h 7.4km/h 3.7km/h 5.6km/h
Wind Gust: 4.8km/h 4.8km/h - -
WindSSW - - SSW
Pressure: 1016.5 hPa 1016.9 hPa 1016.5 hPa -
Precipitation: 0.0 mm      
Historical Graphs
 
 
Tabular Data for August 15, 2018
Time Temperature Dew Point Pressure Wind Wind Speed Wind Gust Humidity Rainfall Rate (Hourly) solar Conditions
00:04 18.1 °C 14.7 °C 1016.6 hPa SW 5.6 km/h 4.0 km/h 81% 0.0 mm 0.00 W/m2 CLR
00:09 18.0 °C 14.7 °C 1016.8 hPa SW 5.6 km/h 1.6 km/h 81% 0.0 mm 0.00 W/m2 CLR
00:14 17.9 °C 14.8 °C 1016.8 hPa SW 5.6 km/h 2.3 km/h 82% 0.0 mm 0.00 W/m2 CLR
00:19 17.8 °C 14.7 °C 1016.8 hPa SW 5.6 km/h 2.6 km/h 82% 0.0 mm 0.00 W/m2 CLR
00:24 17.8 °C 14.7 °C 1016.8 hPa SW 5.6 km/h 1.3 km/h 82% 0.0 mm 0.00 W/m2 CLR
00:29 17.7 °C 14.6 °C 1016.7 hPa SW 3.7 km/h 0.8 km/h 82% 0.0 mm 0.00 W/m2 CLR
00:34 17.7 °C 14.6 °C 1016.8 hPa SW 5.6 km/h 1.9 km/h 82% 0.0 mm 0.00 W/m2 CLR
00:39 17.7 °C 14.6 °C 1016.8 hPa SW 5.6 km/h 2.6 km/h 82% 0.0 mm 0.00 W/m2 CLR
00:44 17.7 °C 14.6 °C 1016.8 hPa SW 5.6 km/h 2.1 km/h 82% 0.0 mm 0.00 W/m2 CLR
00:49 17.7 °C 14.6 °C 1016.9 hPa SW 5.6 km/h 2.9 km/h 82% 0.0 mm 0.00 W/m2 CLR
00:54 17.4 °C 14.5 °C 1016.8 hPa SSW 5.6 km/h 4.0 km/h 83% 0.0 mm 0.00 W/m2 CLR
00:59 17.3 °C 14.4 °C 1016.8 hPa SSW 5.6 km/h 3.2 km/h 83% 0.0 mm 0.00 W/m2 CLR
01:04 17.2 °C 14.3 °C 1016.7 hPa SSW 5.6 km/h 3.1 km/h 83% 0.0 mm 0.00 W/m2 CLR
01:09 17.1 °C 14.4 °C 1016.7 hPa SSW 5.6 km/h 3.4 km/h 84% 0.0 mm 0.00 W/m2 CLR
01:14 17.1 °C 14.4 °C 1016.6 hPa SSW 5.6 km/h 3.9 km/h 84% 0.0 mm 0.00 W/m2 CLR
01:19 17.1 °C 14.3 °C 1016.5 hPa SSW 5.6 km/h 3.9 km/h 84% 0.0 mm 0.00 W/m2 CLR
01:24 17.0 °C 14.3 °C 1016.7 hPa SSW 5.6 km/h 3.5 km/h 84% 0.0 mm 0.00 W/m2 CLR
01:29 17.0 °C 14.3 °C 1016.7 hPa SSW 6.4 km/h 1.4 km/h 84% 0.0 mm 0.00 W/m2 CLR
01:34 16.9 °C 14.2 °C 1016.7 hPa SSW 5.6 km/h 2.1 km/h 84% 0.0 mm 0.00 W/m2 CLR
01:39 17.0 °C 14.4 °C 1016.6 hPa SSW 3.7 km/h 1.1 km/h 85% 0.0 mm 0.00 W/m2 CLR
01:44 17.1 °C 14.5 °C 1016.6 hPa SSW 5.6 km/h 2.1 km/h 85% 0.0 mm 0.00 W/m2 CLR
01:49 17.2 °C 14.7 °C 1016.5 hPa SSW 5.6 km/h 2.7 km/h 85% 0.0 mm 0.00 W/m2 CLR
01:54 17.3 °C 14.8 °C 1016.5 hPa SSW 5.6 km/h 1.9 km/h 85% 0.0 mm 0.00 W/m2 CLR
01:59 17.5 °C 14.9 °C 1016.6 hPa SSW 5.6 km/h 2.6 km/h 85% 0.0 mm 0.00 W/m2 CLR
02:04 17.6 °C 15.1 °C 1016.5 hPa SSW 7.4 km/h 4.8 km/h 85% 0.0 mm 0.00 W/m2 CLR
Juneau County Weather